Time;durP1;ratioP1;P1;durP2;ratioP2;P2;SDS_P1;SDS_P2;PMS_P1;PMS_P2;Temp;Humidity;BMP_temperature;BMP_pressure;BME280_temperature;BME280_humidity;BME280_pressure;Samples;Min_cycle;Max_cycle;Signal;HPM_P1;HPM_P2
2023/09/30 00:02:07;;;;;;;57.33;7.78;;;;;;;;;;6113906;23;20022;-59
2023/09/30 00:04:55;;;;;;;56.08;7.32;;;;;;;;;;6112931;23;20022;-64
2023/09/30 00:08:01;;;;;;;67.53;7.55;;;;;;;;;;6115233;23;20886;-60
2023/09/30 00:10:55;;;;;;;45.72;7.68;;;;;;;;;;6083123;23;20030;-60
2023/09/30 00:13:50;;;;;;;51.30;7.65;;;;;;;;;;6086021;23;20026;-59
2023/09/30 00:16:36;;;;;;;56.00;7.32;;;;;;;;;;6083064;23;20030;-60
2023/09/30 00:19:33;;;;;;;44.75;6.72;;;;;;;;;;6085433;23;20089;-59
2023/09/30 00:22:24;;;;;;;50.80;7.70;;;;;;;;;;6085984;23;20022;-48
2023/09/30 00:25:17;;;;;;;50.90;7.53;;;;;;;;;;6085220;23;20027;-64
2023/09/30 00:28:11;;;;;;;57.70;8.02;;;;;;;;;;6085341;23;20536;-64
2023/09/30 00:31:11;;;;;;;55.70;7.03;;;;;;;;;;6086918;23;20078;-64
2023/09/30 00:33:59;;;;;;;61.58;7.78;;;;;;;;;;6085883;23;20026;-64
2023/09/30 00:36:52;;;;;;;64.13;8.25;;;;;;;;;;6084731;23;20627;-64
2023/09/30 00:39:39;;;;;;;62.70;7.45;;;;;;;;;;6084256;23;20397;-63
2023/09/30 00:42:33;;;;;;;53.92;7.15;;;;;;;;;;6084458;23;20034;-57
2023/09/30 00:45:20;;;;;;;60.70;8.70;;;;;;;;;;6084463;23;20090;-58
2023/09/30 00:48:14;;;;;;;59.78;7.47;;;;;;;;;;6085212;23;20022;-58
2023/09/30 00:51:08;;;;;;;66.40;8.20;;;;;;;;;;6085316;23;20459;-58
2023/09/30 00:54:03;;;;;;;59.90;8.65;;;;;;;;;;6084985;23;20027;-58
2023/09/30 00:56:50;;;;;;;50.13;6.55;;;;;;;;;;6084523;23;20026;-58
2023/09/30 00:59:44;;;;;;;56.17;7.35;;;;;;;;;;6086669;23;20038;-61
2023/09/30 01:02:31;;;;;;;50.65;6.88;;;;;;;;;;6085067;23;20363;-59
2023/09/30 01:05:25;;;;;;;59.97;7.78;;;;;;;;;;6084739;23;20357;-58
2023/09/30 01:08:13;;;;;;;62.75;7.43;;;;;;;;;;6089142;23;20409;-59
2023/09/30 01:11:07;;;;;;;59.33;7.25;;;;;;;;;;6114990;23;20092;-59
2023/09/30 01:13:55;;;;;;;61.67;8.38;;;;;;;;;;6114035;23;20025;-59
2023/09/30 01:16:55;;;;;;;63.03;7.25;;;;;;;;;;6113947;23;20060;-59
2023/09/30 01:19:42;;;;;;;54.15;7.13;;;;;;;;;;6113838;23;20030;-53
2023/09/30 01:22:36;;;;;;;63.90;7.60;;;;;;;;;;6115451;23;20018;-55
2023/09/30 01:25:23;;;;;;;53.28;7.88;;;;;;;;;;6112658;23;20025;-48
2023/09/30 01:28:17;;;;;;;57.53;7.43;;;;;;;;;;6114854;23;20073;-53
2023/09/30 01:31:05;;;;;;;53.45;7.25;;;;;;;;;;6114708;23;20034;-52
2023/09/30 01:33:59;;;;;;;55.28;7.75;;;;;;;;;;6113261;23;20367;-53
2023/09/30 01:36:46;;;;;;;57.63;7.15;;;;;;;;;;6113349;23;20022;-52
2023/09/30 01:39:41;;;;;;;48.35;7.05;;;;;;;;;;6113258;23;20037;-59
2023/09/30 01:42:27;;;;;;;71.43;8.00;;;;;;;;;;6112993;23;20026;-59
2023/09/30 01:45:21;;;;;;;58.50;7.88;;;;;;;;;;6114957;23;20077;-59
2023/09/30 01:48:12;;;;;;;56.40;7.50;;;;;;;;;;6112401;23;20017;-59
2023/09/30 01:51:03;;;;;;;57.17;8.45;;;;;;;;;;6114355;23;20022;-59
2023/09/30 01:53:51;;;;;;;59.50;7.03;;;;;;;;;;6113103;23;20037;-58
2023/09/30 01:56:45;;;;;;;64.55;7.47;;;;;;;;;;6115195;23;20029;-59
2023/09/30 01:59:33;;;;;;;61.75;7.47;;;;;;;;;;6114468;23;20022;-58
2023/09/30 02:02:26;;;;;;;55.67;8.23;;;;;;;;;;6113771;23;20025;-59
2023/09/30 02:05:14;;;;;;;52.00;6.68;;;;;;;;;;6113603;23;20026;-59
2023/09/30 02:08:20;;;;;;;50.70;7.22;;;;;;;;;;6112849;23;20468;-59
2023/09/30 02:11:14;;;;;;;54.83;7.18;;;;;;;;;;6114371;23;20097;-51
2023/09/30 02:14:08;;;;;;;55.63;7.13;;;;;;;;;;6112624;23;20026;-54
2023/09/30 02:17:02;;;;;;;57.30;8.43;;;;;;;;;;6113152;23;20025;-55
2023/09/30 02:19:56;;;;;;;53.55;7.60;;;;;;;;;;6113924;23;20025;-55
2023/09/30 02:22:44;;;;;;;58.85;8.48;;;;;;;;;;6115930;23;20033;-48
2023/09/30 02:25:40;;;;;;;57.65;7.05;;;;;;;;;;6111862;23;20077;-52
2023/09/30 02:28:27;;;;;;;61.90;8.75;;;;;;;;;;6112987;23;20084;-52
2023/09/30 02:31:21;;;;;;;64.95;9.05;;;;;;;;;;6112978;23;20033;-61
2023/09/30 02:34:15;;;;;;;53.72;6.57;;;;;;;;;;6113713;23;20022;-48
2023/09/30 02:37:02;;;;;;;57.40;8.13;;;;;;;;;;6111559;23;20026;-46
2023/09/30 02:39:57;;;;;;;64.22;7.85;;;;;;;;;;6113026;23;20030;-48
2023/09/30 02:42:50;;;;;;;57.35;7.82;;;;;;;;;;6114022;23;20026;-46
2023/09/30 02:45:37;;;;;;;56.33;7.28;;;;;;;;;;6113621;23;20088;-52
2023/09/30 02:48:32;;;;;;;55.45;7.45;;;;;;;;;;6115047;23;20022;-59
2023/09/30 02:51:18;;;;;;;44.63;7.13;;;;;;;;;;6113536;23;20101;-65
2023/09/30 02:54:15;;;;;;;47.88;8.13;;;;;;;;;;6112556;23;20089;-64
2023/09/30 02:56:59;;;;;;;56.50;8.80;;;;;;;;;;6113149;23;20392;-65
2023/09/30 02:59:54;;;;;;;50.15;7.70;;;;;;;;;;6114995;23;20084;-64
2023/09/30 03:02:47;;;;;;;54.03;7.05;;;;;;;;;;6114258;23;20085;-63
2023/09/30 03:05:35;;;;;;;53.78;8.20;;;;;;;;;;6113194;23;20902;-64
2023/09/30 03:08:41;;;;;;;54.80;6.35;;;;;;;;;;6111289;23;20017;-54
2023/09/30 03:11:35;;;;;;;48.95;6.70;;;;;;;;;;6112549;23;20025;-59
2023/09/30 03:14:30;;;;;;;44.97;7.10;;;;;;;;;;6113111;23;20552;-59
2023/09/30 03:17:17;;;;;;;56.15;7.78;;;;;;;;;;6114332;23;20076;-59
2023/09/30 03:20:14;;;;;;;38.03;6.93;;;;;;;;;;6116152;23;20072;-59
2023/09/30 03:23:08;;;;;;;49.92;7.68;;;;;;;;;;6114926;23;20420;-59
2023/09/30 03:25:56;;;;;;;63.72;7.20;;;;;;;;;;6113500;23;20022;-64
2023/09/30 03:28:50;;;;;;;51.90;7.00;;;;;;;;;;6114975;23;20077;-61
2023/09/30 03:31:36;;;;;;;51.17;6.95;;;;;;;;;;6114337;23;20731;-60
2023/09/30 03:34:30;;;;;;;52.22;6.50;;;;;;;;;;6116238;23;20061;-60
2023/09/30 03:37:17;;;;;;;59.85;8.38;;;;;;;;;;6115051;23;20041;-60
2023/09/30 03:40:14;;;;;;;44.80;7.72;;;;;;;;;;6115719;23;20026;-60
2023/09/30 03:42:59;;;;;;;49.65;8.00;;;;;;;;;;6112385;23;20026;-51
2023/09/30 03:45:53;;;;;;;49.15;7.65;;;;;;;;;;6112725;23;20057;-60
2023/09/30 03:48:40;;;;;;;51.95;7.18;;;;;;;;;;6115713;23;20113;-60
2023/09/30 03:51:37;;;;;;;50.83;7.07;;;;;;;;;;6114557;23;20570;-61
2023/09/30 03:54:22;;;;;;;57.35;6.63;;;;;;;;;;6114856;23;20531;-61
2023/09/30 03:57:16;;;;;;;52.03;7.03;;;;;;;;;;6113834;23;20362;-61
2023/09/30 04:00:06;;;;;;;51.80;7.40;;;;;;;;;;6114203;23;20089;-60
2023/09/30 04:02:58;;;;;;;42.78;7.20;;;;;;;;;;6113955;23;20424;-59
2023/09/30 04:05:44;;;;;;;50.47;7.63;;;;;;;;;;6114679;23;20400;-61
2023/09/30 04:08:50;;;;;;;55.97;7.68;;;;;;;;;;6112916;23;20031;-64
2023/09/30 04:11:44;;;;;;;57.95;7.47;;;;;;;;;;6114718;23;20025;-64
2023/09/30 04:14:39;;;;;;;57.65;7.10;;;;;;;;;;6115950;23;20064;-64
2023/09/30 04:17:26;;;;;;;61.00;7.07;;;;;;;;;;6113066;23;20026;-64
2023/09/30 04:20:23;;;;;;;55.13;7.03;;;;;;;;;;6115812;23;20018;-62
2023/09/30 04:23:16;;;;;;;44.05;6.80;;;;;;;;;;6115420;23;20064;-61
2023/09/30 04:26:05;;;;;;;48.88;6.18;;;;;;;;;;6115614;23;20093;-60
2023/09/30 04:28:57;;;;;;;53.85;6.88;;;;;;;;;;6115777;23;20377;-60
2023/09/30 04:31:44;;;;;;;58.40;7.53;;;;;;;;;;6114775;23;20033;-60
2023/09/30 04:34:38;;;;;;;49.40;6.38;;;;;;;;;;6114834;23;20077;-60
2023/09/30 04:37:26;;;;;;;61.42;8.25;;;;;;;;;;6114906;23;20021;-60
2023/09/30 04:40:19;;;;;;;49.53;7.13;;;;;;;;;;6116975;23;20523;-60
2023/09/30 04:43:06;;;;;;;36.03;5.88;;;;;;;;;;6113879;23;20053;-58
2023/09/30 04:46:01;;;;;;;30.30;5.38;;;;;;;;;;6094420;23;20050;-59
2023/09/30 04:48:48;;;;;;;30.00;5.00;;;;;;;;;;6115006;23;20033;-58
2023/09/30 04:51:41;;;;;;;46.78;5.55;;;;;;;;;;6113264;23;20030;-62
2023/09/30 04:54:09;;;;;;;22.98;4.32;;;;;;;;;;6115081;23;20050;-62
2023/09/30 04:56:36;;;;;;;31.83;4.43;;;;;;;;;;6116567;23;20022;-63
2023/09/30 04:59:10;;;;;;;37.88;5.20;;;;;;;;;;6115698;23;20060;-63
2023/09/30 05:01:58;;;;;;;33.97;4.70;;;;;;;;;;6116811;23;20081;-63
2023/09/30 05:04:52;;;;;;;43.70;6.15;;;;;;;;;;6116052;23;20112;-63
2023/09/30 05:07:39;;;;;;;46.88;6.05;;;;;;;;;;6113783;23;20077;-60
2023/09/30 05:10:39;;;;;;;47.47;6.50;;;;;;;;;;6114621;23;20022;-59
2023/09/30 05:13:34;;;;;;;45.05;5.68;;;;;;;;;;6114988;23;20113;-58
2023/09/30 05:16:27;;;;;;;51.88;6.13;;;;;;;;;;6113860;23;20555;-59
2023/09/30 05:19:13;;;;;;;43.78;5.43;;;;;;;;;;6113966;23;20026;-58
2023/09/30 05:22:07;;;;;;;34.33;4.38;;;;;;;;;;6114582;23;20294;-58
2023/09/30 05:24:56;;;;;;;23.58;4.80;;;;;;;;;;6117667;23;20025;-64
2023/09/30 05:27:48;;;;;;;30.98;3.67;;;;;;;;;;6114208;23;20344;-55
2023/09/30 05:30:36;;;;;;;38.47;4.97;;;;;;;;;;6114728;23;20022;-59
2023/09/30 05:33:30;;;;;;;21.63;4.00;;;;;;;;;;6114462;23;20101;-59
2023/09/30 05:36:17;;;;;;;32.53;4.28;;;;;;;;;;6115335;23;20465;-59
2023/09/30 05:39:11;;;;;;;28.02;4.43;;;;;;;;;;6113786;23;20863;-59
2023/09/30 05:41:59;;;;;;;29.90;4.22;;;;;;;;;;6114411;23;20409;-59
2023/09/30 05:44:53;;;;;;;30.10;4.50;;;;;;;;;;6113414;23;20041;-59
2023/09/30 05:47:40;;;;;;;36.70;4.95;;;;;;;;;;6113053;23;20029;-58
2023/09/30 05:50:36;;;;;;;34.63;4.47;;;;;;;;;;6114056;23;20025;-59
2023/09/30 05:53:22;;;;;;;33.88;4.70;;;;;;;;;;6112360;23;20026;-58
2023/09/30 05:56:15;;;;;;;41.45;5.10;;;;;;;;;;6115346;23;20101;-58
2023/09/30 05:59:03;;;;;;;34.47;3.83;;;;;;;;;;6111676;23;20026;-59
2023/09/30 06:01:36;;;;;;;35.92;4.05;;;;;;;;;;6109319;23;20018;-64
2023/09/30 06:04:23;;;;;;;32.78;4.68;;;;;;;;;;6113932;23;20025;-59
2023/09/30 06:06:58;;;;;;;27.05;3.78;;;;;;;;;;6114944;23;20025;-58
2023/09/30 06:09:58;;;;;;;25.63;4.68;;;;;;;;;;6113537;23;20081;-61
2023/09/30 06:12:25;;;;;;;26.95;4.68;;;;;;;;;;6115254;23;20026;-58
2023/09/30 06:15:21;;;;;;;35.17;4.53;;;;;;;;;;6113380;23;20024;-59
2023/09/30 06:18:07;;;;;;;24.35;4.95;;;;;;;;;;6114940;23;20461;-59
2023/09/30 06:21:00;;;;;;;23.63;4.07;;;;;;;;;;6113359;23;20341;-64
2023/09/30 06:23:48;;;;;;;24.08;3.85;;;;;;;;;;6114521;23;20026;-60
2023/09/30 06:26:42;;;;;;;32.95;3.88;;;;;;;;;;6112917;23;20038;-59
2023/09/30 06:29:37;;;;;;;27.67;3.85;;;;;;;;;;6113990;23;20026;-59
2023/09/30 06:32:23;;;;;;;29.35;3.53;;;;;;;;;;6116569;23;20456;-59
2023/09/30 06:35:17;;;;;;;28.40;4.40;;;;;;;;;;6115849;23;20097;-59
2023/09/30 06:38:06;;;;;;;30.30;4.13;;;;;;;;;;6115675;23;20356;-58
2023/09/30 06:40:59;;;;;;;26.05;4.00;;;;;;;;;;6115809;23;20025;-62
2023/09/30 06:43:52;;;;;;;28.33;5.15;;;;;;;;;;6114267;23;20022;-55
2023/09/30 06:46:46;;;;;;;27.13;4.35;;;;;;;;;;6110466;23;20026;-55
2023/09/30 06:49:36;;;;;;;31.30;4.65;;;;;;;;;;6111796;23;20881;-52
2023/09/30 06:52:31;;;;;;;31.67;4.28;;;;;;;;;;6113180;23;20104;-56
2023/09/30 06:55:27;;;;;;;25.42;4.40;;;;;;;;;;6114502;23;20022;-55
2023/09/30 06:58:13;;;;;;;17.45;3.08;;;;;;;;;;6109472;23;20026;-55
2023/09/30 07:01:06;;;;;;;25.05;3.85;;;;;;;;;;6115675;23;20029;-59
2023/09/30 07:04:01;;;;;;;24.75;4.68;;;;;;;;;;6112439;23;20401;-59
2023/09/30 07:06:28;;;;;;;21.48;4.22;;;;;;;;;;6112368;23;20033;-58
2023/09/30 07:09:30;;;;;;;25.05;4.40;;;;;;;;;;6111818;23;20097;-58
2023/09/30 07:12:16;;;;;;;32.65;5.03;;;;;;;;;;6114211;23;20018;-59
2023/09/30 07:15:10;;;;;;;25.67;3.88;;;;;;;;;;6114019;23;20053;-46
2023/09/30 07:17:58;;;;;;;29.65;4.25;;;;;;;;;;6113835;23;20033;-64
2023/09/30 07:20:32;;;;;;;28.55;4.47;;;;;;;;;;6114137;23;20033;-64
2023/09/30 07:23:20;;;;;;;26.23;3.40;;;;;;;;;;6112341;23;20034;-65
2023/09/30 07:26:14;;;;;;;30.98;4.93;;;;;;;;;;6114152;23;20500;-65
2023/09/30 07:29:00;;;;;;;21.10;4.20;;;;;;;;;;6111033;23;20025;-65
2023/09/30 07:31:54;;;;;;;37.83;4.97;;;;;;;;;;6112360;23;20030;-65
2023/09/30 07:34:41;;;;;;;28.80;4.38;;;;;;;;;;6110785;23;20092;-64
2023/09/30 07:37:35;;;;;;;21.95;3.90;;;;;;;;;;6113115;23;20045;-61
2023/09/30 07:40:22;;;;;;;22.35;3.85;;;;;;;;;;6113865;23;20026;-61
2023/09/30 07:43:17;;;;;;;21.80;3.35;;;;;;;;;;6113926;23;20026;-61
2023/09/30 07:46:07;;;;;;;21.20;3.78;;;;;;;;;;6112924;23;20567;-61
2023/09/30 07:49:00;;;;;;;25.13;4.03;;;;;;;;;;6114239;23;20021;-61
2023/09/30 07:51:54;;;;;;;20.92;3.65;;;;;;;;;;6113928;23;20022;-61
2023/09/30 07:54:48;;;;;;;20.08;3.60;;;;;;;;;;6110912;23;20022;-65
2023/09/30 07:57:36;;;;;;;24.48;3.53;;;;;;;;;;6112329;23;20026;-60
2023/09/30 08:03:39;;;;;;;19.13;3.15;;;;;;;;;;6039696;23;20134;-59
2023/09/30 08:06:32;;;;;;;20.52;4.07;;;;;;;;;;6050000;23;20023;-61
2023/09/30 08:09:33;;;;;;;22.13;4.22;;;;;;;;;;6052694;23;20396;-60
2023/09/30 08:12:21;;;;;;;20.75;3.35;;;;;;;;;;4993013;23;10000468;-61
2023/09/30 08:15:14;;;;;;;16.73;3.67;;;;;;;;;;6054472;23;20042;-49
2023/09/30 08:18:08;;;;;;;24.92;4.00;;;;;;;;;;6049329;23;20022;-48
2023/09/30 08:20:55;;;;;;;19.42;4.05;;;;;;;;;;6051226;23;20098;-47
2023/09/30 08:23:49;;;;;;;19.70;3.55;;;;;;;;;;6052349;23;20134;-50
2023/09/30 08:26:37;;;;;;;19.08;3.40;;;;;;;;;;6054051;23;20938;-47
2023/09/30 08:29:30;;;;;;;20.40;3.63;;;;;;;;;;6052726;23;20072;-65
2023/09/30 08:32:17;;;;;;;20.05;3.13;;;;;;;;;;6056550;23;20023;-65
2023/09/30 08:35:12;;;;;;;21.73;3.97;;;;;;;;;;6057034;23;20049;-64
2023/09/30 08:37:59;;;;;;;18.33;3.75;;;;;;;;;;6055932;23;20024;-66
2023/09/30 08:40:53;;;;;;;24.10;3.63;;;;;;;;;;6055834;23;20026;-65
2023/09/30 08:43:40;;;;;;;21.45;3.78;;;;;;;;;;6055488;23;20086;-65
2023/09/30 08:46:36;;;;;;;22.42;3.85;;;;;;;;;;6056905;23;20401;-65
2023/09/30 08:49:23;;;;;;;24.90;4.63;;;;;;;;;;6053761;23;20105;-59
2023/09/30 08:52:16;;;;;;;22.88;4.03;;;;;;;;;;6056787;23;20074;-59
2023/09/30 08:55:10;;;;;;;16.25;3.30;;;;;;;;;;6055591;23;20027;-59
2023/09/30 08:58:05;;;;;;;22.15;3.58;;;;;;;;;;6055788;23;20082;-59
2023/09/30 09:00:52;;;;;;;26.27;4.60;;;;;;;;;;6054671;23;20027;-59
2023/09/30 09:03:52;;;;;;;21.02;3.78;;;;;;;;;;6053072;23;20031;-58
2023/09/30 09:06:39;;;;;;;20.83;4.05;;;;;;;;;;6053826;23;20023;-56
2023/09/30 09:09:27;;;;;;;22.27;3.67;;;;;;;;;;6062789;23;20023;-66
2023/09/30 09:12:20;;;;;;;24.85;4.15;;;;;;;;;;6079767;23;20022;-66
2023/09/30 09:15:08;;;;;;;23.20;3.83;;;;;;;;;;6071615;23;20037;-66
2023/09/30 09:18:02;;;;;;;29.85;5.50;;;;;;;;;;6080655;23;20026;-67
2023/09/30 09:20:50;;;;;;;24.33;4.25;;;;;;;;;;6080782;23;20023;-66
2023/09/30 09:23:50;;;;;;;22.13;4.00;;;;;;;;;;6085379;23;20749;-56
2023/09/30 09:26:38;;;;;;;24.85;4.45;;;;;;;;;;6083017;23;20026;-56
2023/09/30 09:29:31;;;;;;;17.15;3.80;;;;;;;;;;6082031;23;20030;-55
2023/09/30 09:32:19;;;;;;;20.00;4.10;;;;;;;;;;6080796;23;20030;-55
2023/09/30 09:35:12;;;;;;;22.60;4.10;;;;;;;;;;6079885;23;20457;-55
2023/09/30 09:37:39;;;;;;;23.48;3.95;;;;;;;;;;6087250;23;20378;-52
2023/09/30 09:40:13;;;;;;;29.55;4.72;;;;;;;;;;6084218;23;20253;-57
2023/09/30 09:42:41;;;;;;;19.27;3.00;;;;;;;;;;6082380;23;20023;-66
2023/09/30 09:45:36;;;;;;;21.20;3.80;;;;;;;;;;6085608;23;20085;-59
2023/09/30 09:48:25;;;;;;;23.63;3.65;;;;;;;;;;6085285;23;20026;-57
2023/09/30 09:51:19;;;;;;;20.55;4.15;;;;;;;;;;6086813;23;20054;-59
2023/09/30 09:54:07;;;;;;;19.92;4.07;;;;;;;;;;6086480;23;20074;-58
2023/09/30 09:57:01;;;;;;;22.83;4.70;;;;;;;;;;6085393;23;20532;-58
2023/09/30 09:59:49;;;;;;;29.83;5.78;;;;;;;;;;6086915;23;20800;-58
2023/09/30 10:02:43;;;;;;;22.95;4.38;;;;;;;;;;6085260;23;20033;-59
2023/09/30 10:05:31;;;;;;;33.05;6.18;;;;;;;;;;6086135;23;20026;-58
2023/09/30 10:08:30;;;;;;;21.92;5.10;;;;;;;;;;6086067;23;20046;-58
2023/09/30 10:11:23;;;;;;;22.48;4.82;;;;;;;;;;6083833;23;20029;-58
2023/09/30 10:14:32;;;;;;;28.38;4.50;;;;;;;;;;6085702;23;20026;-58
2023/09/30 10:17:17;;;;;;;22.17;5.10;;;;;;;;;;6085967;23;20097;-59
2023/09/30 10:20:11;;;;;;;25.80;4.53;;;;;;;;;;6085984;23;20101;-55
2023/09/30 10:23:20;;;;;;;18.17;4.18;;;;;;;;;;6085092;23;20036;-58
2023/09/30 10:26:08;;;;;;;13.82;4.25;;;;;;;;;;6084518;23;20027;-58
2023/09/30 10:29:09;;;;;;;24.25;4.15;;;;;;;;;;6085618;23;20038;-58
2023/09/30 10:31:56;;;;;;;20.50;4.65;;;;;;;;;;6086062;23;20022;-57
2023/09/30 10:34:38;;;;;;;27.30;4.57;;;;;;;;;;6085063;23;20056;-58
2023/09/30 10:37:25;;;;;;;27.45;4.75;;;;;;;;;;6086287;23;20024;-69
2023/09/30 10:40:28;;;;;;;27.27;4.45;;;;;;;;;;6084716;23;20023;-60
2023/09/30 10:43:35;;;;;;;23.08;4.30;;;;;;;;;;6085230;23;20338;-60
2023/09/30 10:46:27;;;;;;;27.40;5.57;;;;;;;;;;6084970;23;20525;-60
2023/09/30 10:49:25;;;;;;;25.55;5.60;;;;;;;;;;6084228;23;20488;-60
2023/09/30 10:52:12;;;;;;;26.58;4.78;;;;;;;;;;6085570;23;20027;-60
2023/09/30 10:55:07;;;;;;;23.83;5.78;;;;;;;;;;6085245;23;20034;-60
2023/09/30 10:57:53;;;;;;;33.63;5.97;;;;;;;;;;6086487;23;20090;-58
2023/09/30 11:00:57;;;;;;;25.02;4.50;;;;;;;;;;6087908;23;20026;-59
2023/09/30 11:03:44;;;;;;;25.95;4.70;;;;;;;;;;6084574;23;20863;-61
2023/09/30 11:06:45;;;;;;;21.77;4.00;;;;;;;;;;6086108;23;20037;-60
2023/09/30 11:09:41;;;;;;;16.60;4.00;;;;;;;;;;6082415;23;20540;-60
2023/09/30 11:12:53;;;;;;;23.48;4.18;;;;;;;;;;6085321;23;20030;-59
2023/09/30 11:15:40;;;;;;;29.17;4.70;;;;;;;;;;6084749;23;20362;-60
2023/09/30 11:18:37;;;;;;;19.75;3.42;;;;;;;;;;6085112;23;20054;-59
2023/09/30 11:21:22;;;;;;;15.10;3.50;;;;;;;;;;6086116;23;20025;-59
2023/09/30 11:24:17;;;;;;;22.42;3.75;;;;;;;;;;6084852;23;20054;-58
2023/09/30 11:27:04;;;;;;;14.00;3.15;;;;;;;;;;6084611;23;20058;-59
2023/09/30 11:29:58;;;;;;;16.92;3.95;;;;;;;;;;6085845;23;20368;-59
2023/09/30 11:32:46;;;;;;;14.18;3.75;;;;;;;;;;6085615;23;20031;-58
2023/09/30 11:35:39;;;;;;;16.75;3.92;;;;;;;;;;6084057;23;20532;-56
2023/09/30 11:38:27;;;;;;;16.40;3.35;;;;;;;;;;6085080;23;20125;-57
2023/09/30 11:41:22;;;;;;;23.33;4.20;;;;;;;;;;6086269;23;20018;-57
2023/09/30 11:44:14;;;;;;;23.85;4.93;;;;;;;;;;6086655;23;20026;-58
2023/09/30 11:47:08;;;;;;;32.35;5.57;;;;;;;;;;6085841;23;20097;-56
2023/09/30 11:49:54;;;;;;;25.13;5.45;;;;;;;;;;6086957;23;20023;-56
2023/09/30 11:52:47;;;;;;;26.60;5.63;;;;;;;;;;6084337;23;20030;-59
2023/09/30 11:55:42;;;;;;;29.48;5.40;;;;;;;;;;6083781;23;20365;-69
2023/09/30 11:58:35;;;;;;;27.90;5.05;;;;;;;;;;6084298;23;20134;-69
2023/09/30 12:01:25;;;;;;;26.52;5.30;;;;;;;;;;6085503;23;20022;-69
2023/09/30 12:03:59;;;;;;;26.33;5.32;;;;;;;;;;6087142;23;20040;-69
2023/09/30 12:06:27;;;;;;;26.65;4.45;;;;;;;;;;6086060;23;20105;-68
2023/09/30 12:08:54;;;;;;;;;;;;;;;;;;6080755;23;20090;-69
2023/09/30 12:11:57;;;;;;;25.25;5.28;;;;;;;;;;6025780;23;19918;-55
2023/09/30 12:14:50;;;;;;;33.17;5.43;;;;;;;;;;6025482;23;20547;-58
2023/09/30 12:17:37;;;;;;;33.30;5.70;;;;;;;;;;6024503;23;20485;-58
2023/09/30 12:20:33;;;;;;;33.30;5.68;;;;;;;;;;6024642;23;20106;-58
2023/09/30 12:23:20;;;;;;;35.85;6.38;;;;;;;;;;6026016;23;20353;-58
2023/09/30 12:26:14;;;;;;;24.85;5.07;;;;;;;;;;6029373;23;20165;-57
2023/09/30 12:29:09;;;;;;;27.45;6.15;;;;;;;;;;6024681;23;20031;-57
2023/09/30 12:31:55;;;;;;;22.70;5.32;;;;;;;;;;6030075;23;20087;-56
2023/09/30 12:34:50;;;;;;;38.05;6.28;;;;;;;;;;6028145;23;20047;-54
2023/09/30 12:37:38;;;;;;;26.40;5.55;;;;;;;;;;6030090;23;20083;-57
2023/09/30 12:40:30;;;;;;;26.55;5.97;;;;;;;;;;6028367;23;20027;-57
2023/09/30 12:43:17;;;;;;;18.05;4.88;;;;;;;;;;6025818;23;20588;-57
2023/09/30 12:46:13;;;;;;;25.05;5.65;;;;;;;;;;6029147;23;20031;-58
2023/09/30 12:48:41;;;;;;;28.13;5.18;;;;;;;;;;6028181;23;20708;-58
2023/09/30 12:51:09;;;;;;;23.30;5.03;;;;;;;;;;6030080;23;20031;-57
2023/09/30 12:54:03;;;;;;;19.40;4.22;;;;;;;;;;6028612;23;20498;-57
2023/09/30 12:56:56;;;;;;;30.25;5.30;;;;;;;;;;6029010;23;20331;-58
2023/09/30 12:59:46;;;;;;;30.13;5.78;;;;;;;;;;6028486;23;20031;-57
2023/09/30 13:02:38;;;;;;;26.13;5.70;;;;;;;;;;6027621;23;20052;-57
2023/09/30 13:05:25;;;;;;;25.67;5.35;;;;;;;;;;6028305;23;20023;-56
2023/09/30 13:08:18;;;;;;;25.77;5.05;;;;;;;;;;6028387;23;20031;-58
2023/09/30 13:11:12;;;;;;;25.15;5.15;;;;;;;;;;6068635;23;20034;-58
2023/09/30 13:14:06;;;;;;;27.13;5.25;;;;;;;;;;6079331;23;20041;-57
2023/09/30 13:16:54;;;;;;;25.50;5.00;;;;;;;;;;6084720;23;20026;-58
2023/09/30 13:19:47;;;;;;;25.92;5.07;;;;;;;;;;6085608;23;20030;-59
2023/09/30 13:22:38;;;;;;;28.83;5.00;;;;;;;;;;6084990;23;20523;-59
2023/09/30 13:25:30;;;;;;;20.83;4.70;;;;;;;;;;6085801;23;20102;-58
2023/09/30 13:28:17;;;;;;;33.45;6.03;;;;;;;;;;6087922;23;20024;-46
2023/09/30 13:31:10;;;;;;;28.50;5.72;;;;;;;;;;6085226;23;20073;-51
2023/09/30 13:33:58;;;;;;;32.47;6.70;;;;;;;;;;6086424;23;20022;-49
2023/09/30 13:36:51;;;;;;;24.48;5.43;;;;;;;;;;6085761;23;20101;-49
2023/09/30 13:39:39;;;;;;;29.23;5.50;;;;;;;;;;6082942;23;20536;-49
2023/09/30 13:42:32;;;;;;;26.65;5.50;;;;;;;;;;6083361;23;20520;-57
2023/09/30 13:45:20;;;;;;;30.75;5.13;;;;;;;;;;6081724;23;20053;-58
2023/09/30 13:48:14;;;;;;;24.83;4.85;;;;;;;;;;6084728;23;20030;-57
2023/09/30 13:51:08;;;;;;;18.35;4.28;;;;;;;;;;6083995;23;20564;-58
2023/09/30 13:54:01;;;;;;;28.70;4.95;;;;;;;;;;6085652;23;20023;-58
2023/09/30 13:56:49;;;;;;;26.77;5.05;;;;;;;;;;6087862;23;20022;-58
2023/09/30 13:59:43;;;;;;;24.42;4.00;;;;;;;;;;6084763;23;20334;-65
2023/09/30 14:02:30;;;;;;;18.73;3.63;;;;;;;;;;6085135;23;20435;-56
2023/09/30 14:05:23;;;;;;;22.23;4.50;;;;;;;;;;6084663;23;20509;-54
2023/09/30 14:08:18;;;;;;;14.95;4.35;;;;;;;;;;6080611;23;20057;-56
2023/09/30 14:11:12;;;;;;;21.42;4.10;;;;;;;;;;6080421;23;20540;-55
2023/09/30 14:14:05;;;;;;;21.42;4.32;;;;;;;;;;6082017;23;20023;-55
2023/09/30 14:16:32;;;;;;;16.88;4.18;;;;;;;;;;6083560;23;20418;-55
2023/09/30 14:19:26;;;;;;;21.77;3.85;;;;;;;;;;6086745;23;20608;-59
2023/09/30 14:22:13;;;;;;;19.85;3.85;;;;;;;;;;6085965;23;20026;-58
2023/09/30 14:25:07;;;;;;;19.75;4.20;;;;;;;;;;6087213;23;20451;-59
2023/09/30 14:27:54;;;;;;;20.35;4.35;;;;;;;;;;6085826;23;20057;-59
2023/09/30 14:30:50;;;;;;;23.92;5.05;;;;;;;;;;6085586;23;20029;-59
2023/09/30 14:33:35;;;;;;;26.73;4.82;;;;;;;;;;6086310;23;20026;-60
2023/09/30 14:36:43;;;;;;;22.08;4.35;;;;;;;;;;6087358;23;20042;-64
2023/09/30 14:39:38;;;;;;;16.92;4.65;;;;;;;;;;6086750;23;20733;-58
2023/09/30 14:42:30;;;;;;;21.35;4.43;;;;;;;;;;6087286;23;20097;-57
2023/09/30 14:45:24;;;;;;;18.65;3.90;;;;;;;;;;6085452;23;20026;-57
2023/09/30 14:48:14;;;;;;;16.58;3.80;;;;;;;;;;6086075;23;20105;-58
2023/09/30 14:51:07;;;;;;;18.13;3.90;;;;;;;;;;6085692;23;20030;-58
2023/09/30 14:53:53;;;;;;;17.58;4.10;;;;;;;;;;6084998;23;20081;-58
2023/09/30 14:56:47;;;;;;;20.13;3.47;;;;;;;;;;6086345;23;20077;-46
2023/09/30 14:59:40;;;;;;;19.30;3.78;;;;;;;;;;6085516;23;20544;-58
2023/09/30 15:02:28;;;;;;;21.23;3.35;;;;;;;;;;6083203;23;20093;-58
2023/09/30 15:05:22;;;;;;;18.33;4.30;;;;;;;;;;6083624;23;20027;-58
2023/09/30 15:08:15;;;;;;;21.10;3.58;;;;;;;;;;6084085;23;20042;-58
2023/09/30 15:11:19;;;;;;;22.92;4.32;;;;;;;;;;6082710;23;20058;-59
2023/09/30 15:14:13;;;;;;;20.48;3.58;;;;;;;;;;6088445;23;20026;-58
2023/09/30 15:17:01;;;;;;;22.75;3.92;;;;;;;;;;6087720;23;20030;-58
2023/09/30 15:19:54;;;;;;;18.25;3.83;;;;;;;;;;6088983;23;20022;-56
2023/09/30 15:22:42;;;;;;;19.17;3.58;;;;;;;;;;6087652;23;20023;-58
2023/09/30 15:25:40;;;;;;;15.85;3.78;;;;;;;;;;6088973;23;20038;-56
2023/09/30 15:28:27;;;;;;;23.52;4.00;;;;;;;;;;6088555;23;20031;-58
2023/09/30 15:31:21;;;;;;;23.00;4.53;;;;;;;;;;6086621;23;20023;-58
2023/09/30 15:34:16;;;;;;;24.48;4.10;;;;;;;;;;6086126;23;20488;-59
2023/09/30 15:37:10;;;;;;;22.00;3.75;;;;;;;;;;6085918;23;20097;-49
2023/09/30 15:39:58;;;;;;;17.27;3.00;;;;;;;;;;6087554;23;20022;-49
2023/09/30 15:42:50;;;;;;;23.27;4.00;;;;;;;;;;6087994;23;20034;-46
2023/09/30 15:45:45;;;;;;;18.95;4.18;;;;;;;;;;6087423;23;20029;-45
2023/09/30 15:48:32;;;;;;;23.00;4.72;;;;;;;;;;6088089;23;20023;-48
2023/09/30 15:51:26;;;;;;;17.98;3.88;;;;;;;;;;6085567;23;20041;-54
2023/09/30 15:54:14;;;;;;;20.27;3.78;;;;;;;;;;6087149;23;20065;-47
2023/09/30 15:57:08;;;;;;;21.65;4.05;;;;;;;;;;6086226;23;20026;-47
2023/09/30 15:59:55;;;;;;;18.55;3.40;;;;;;;;;;6086426;23;20022;-46
2023/09/30 16:02:49;;;;;;;19.90;3.90;;;;;;;;;;6086099;23;20037;-45
2023/09/30 16:05:37;;;;;;;25.30;4.22;;;;;;;;;;6085960;23;20030;-48
2023/09/30 16:08:31;;;;;;;24.40;5.50;;;;;;;;;;6086846;23;20527;-46
2023/09/30 16:11:25;;;;;;;28.55;5.20;;;;;;;;;;6085048;23;20026;-60
2023/09/30 16:14:19;;;;;;;26.38;4.65;;;;;;;;;;6086809;23;20512;-63
2023/09/30 16:17:06;;;;;;;28.98;4.97;;;;;;;;;;6086965;23;20030;-60
2023/09/30 16:20:00;;;;;;;20.30;5.50;;;;;;;;;;6087337;23;20480;-61
2023/09/30 16:22:47;;;;;;;27.05;4.43;;;;;;;;;;6086646;23;20030;-59
2023/09/30 16:25:40;;;;;;;23.05;5.22;;;;;;;;;;6088180;23;20412;-59
2023/09/30 16:28:28;;;;;;;30.77;5.25;;;;;;;;;;6087263;23;20026;-64
2023/09/30 16:31:22;;;;;;;26.23;4.20;;;;;;;;;;6089004;23;20318;-58
2023/09/30 16:34:09;;;;;;;33.25;5.45;;;;;;;;;;6085519;23;20023;-59
2023/09/30 16:37:03;;;;;;;26.02;4.10;;;;;;;;;;6087386;23;20023;-59
2023/09/30 16:39:56;;;;;;;20.17;4.38;;;;;;;;;;6088035;23;20022;-58
2023/09/30 16:42:44;;;;;;;26.25;4.32;;;;;;;;;;6087399;23;20034;-58
2023/09/30 16:45:37;;;;;;;20.33;4.03;;;;;;;;;;6087459;23;20030;-59
2023/09/30 16:48:25;;;;;;;25.40;5.35;;;;;;;;;;6085787;23;20022;-65
2023/09/30 16:51:19;;;;;;;24.23;4.72;;;;;;;;;;6085938;23;20018;-65
2023/09/30 16:54:06;;;;;;;21.00;4.50;;;;;;;;;;6086158;23;20536;-65